sensor_id;sensor_type;location;lat;lon;timestamp;P1;durP1;ratioP1;P2;durP2;ratioP2
7503;SDS011;3793;48.136;11.536;2023-05-07T00:00:42;8.93;;;6.93;;
7503;SDS011;3793;48.136;11.536;2023-05-07T00:03:09;8.03;;;6.50;;
7503;SDS011;3793;48.136;11.536;2023-05-07T00:05:38;7.70;;;6.53;;
7503;SDS011;3793;48.136;11.536;2023-05-07T00:08:06;9.57;;;6.50;;
7503;SDS011;3793;48.136;11.536;2023-05-07T00:10:33;8.90;;;6.30;;
7503;SDS011;3793;48.136;11.536;2023-05-07T00:13:00;9.70;;;5.70;;
7503;SDS011;3793;48.136;11.536;2023-05-07T00:15:29;10.57;;;6.37;;
7503;SDS011;3793;48.136;11.536;2023-05-07T00:17:56;9.53;;;6.17;;
7503;SDS011;3793;48.136;11.536;2023-05-07T00:20:24;9.40;;;5.70;;
7503;SDS011;3793;48.136;11.536;2023-05-07T00:22:51;6.10;;;5.50;;
7503;SDS011;3793;48.136;11.536;2023-05-07T00:25:18;6.77;;;5.53;;
7503;SDS011;3793;48.136;11.536;2023-05-07T00:27:45;5.83;;;5.17;;
7503;SDS011;3793;48.136;11.536;2023-05-07T00:30:13;6.67;;;6.00;;
7503;SDS011;3793;48.136;11.536;2023-05-07T00:32:41;7.50;;;5.93;;
7503;SDS011;3793;48.136;11.536;2023-05-07T00:35:10;7.90;;;6.07;;
7503;SDS011;3793;48.136;11.536;2023-05-07T00:37:37;6.87;;;6.00;;
7503;SDS011;3793;48.136;11.536;2023-05-07T00:40:05;10.13;;;5.83;;
7503;SDS011;3793;48.136;11.536;2023-05-07T00:42:33;7.10;;;5.70;;
7503;SDS011;3793;48.136;11.536;2023-05-07T00:45:00;7.60;;;5.40;;
7503;SDS011;3793;48.136;11.536;2023-05-07T00:47:27;9.67;;;6.33;;
7503;SDS011;3793;48.136;11.536;2023-05-07T00:49:57;6.63;;;5.73;;
7503;SDS011;3793;48.136;11.536;2023-05-07T00:52:25;7.80;;;6.30;;
7503;SDS011;3793;48.136;11.536;2023-05-07T00:54:52;6.87;;;6.17;;
7503;SDS011;3793;48.136;11.536;2023-05-07T00:57:20;7.43;;;6.37;;
7503;SDS011;3793;48.136;11.536;2023-05-07T00:59:48;7.70;;;6.17;;
7503;SDS011;3793;48.136;11.536;2023-05-07T01:02:16;8.13;;;6.27;;
7503;SDS011;3793;48.136;11.536;2023-05-07T01:04:43;6.47;;;5.87;;
7503;SDS011;3793;48.136;11.536;2023-05-07T01:07:12;7.70;;;5.87;;
7503;SDS011;3793;48.136;11.536;2023-05-07T01:09:39;8.93;;;6.10;;
7503;SDS011;3793;48.136;11.536;2023-05-07T01:12:06;9.77;;;5.80;;
7503;SDS011;3793;48.136;11.536;2023-05-07T01:14:33;10.80;;;6.07;;
7503;SDS011;3793;48.136;11.536;2023-05-07T01:17:03;10.63;;;6.23;;
7503;SDS011;3793;48.136;11.536;2023-05-07T01:19:39;6.90;;;6.03;;
7503;SDS011;3793;48.136;11.536;2023-05-07T01:22:07;8.23;;;6.00;;
7503;SDS011;3793;48.136;11.536;2023-05-07T01:24:38;7.87;;;6.07;;
7503;SDS011;3793;48.136;11.536;2023-05-07T01:27:05;9.07;;;6.20;;
7503;SDS011;3793;48.136;11.536;2023-05-07T01:29:33;8.23;;;6.13;;
7503;SDS011;3793;48.136;11.536;2023-05-07T01:32:03;7.07;;;6.37;;
7503;SDS011;3793;48.136;11.536;2023-05-07T01:34:32;8.50;;;6.33;;
7503;SDS011;3793;48.136;11.536;2023-05-07T01:36:59;8.03;;;6.23;;
7503;SDS011;3793;48.136;11.536;2023-05-07T01:39:29;7.67;;;6.40;;
7503;SDS011;3793;48.136;11.536;2023-05-07T01:41:58;6.63;;;5.97;;
7503;SDS011;3793;48.136;11.536;2023-05-07T01:44:26;9.07;;;6.40;;
7503;SDS011;3793;48.136;11.536;2023-05-07T01:46:56;9.27;;;6.07;;
7503;SDS011;3793;48.136;11.536;2023-05-07T01:49:25;8.80;;;6.03;;
7503;SDS011;3793;48.136;11.536;2023-05-07T01:51:52;9.73;;;6.33;;
7503;SDS011;3793;48.136;11.536;2023-05-07T01:54:25;8.37;;;5.80;;
7503;SDS011;3793;48.136;11.536;2023-05-07T01:56:57;7.37;;;6.07;;
7503;SDS011;3793;48.136;11.536;2023-05-07T01:59:25;8.17;;;6.73;;
7503;SDS011;3793;48.136;11.536;2023-05-07T02:01:53;10.50;;;7.67;;
7503;SDS011;3793;48.136;11.536;2023-05-07T02:04:23;8.20;;;6.33;;
7503;SDS011;3793;48.136;11.536;2023-05-07T02:06:50;8.57;;;6.17;;
7503;SDS011;3793;48.136;11.536;2023-05-07T02:09:17;8.23;;;6.40;;
7503;SDS011;3793;48.136;11.536;2023-05-07T02:11:45;9.03;;;6.70;;
7503;SDS011;3793;48.136;11.536;2023-05-07T02:14:13;7.00;;;5.87;;
7503;SDS011;3793;48.136;11.536;2023-05-07T02:16:40;6.33;;;5.73;;
7503;SDS011;3793;48.136;11.536;2023-05-07T02:19:07;7.90;;;5.87;;
7503;SDS011;3793;48.136;11.536;2023-05-07T02:21:34;7.83;;;6.73;;
7503;SDS011;3793;48.136;11.536;2023-05-07T02:24:00;7.43;;;5.47;;
7503;SDS011;3793;48.136;11.536;2023-05-07T02:26:27;7.30;;;5.80;;
7503;SDS011;3793;48.136;11.536;2023-05-07T02:28:55;8.03;;;5.97;;
7503;SDS011;3793;48.136;11.536;2023-05-07T02:31:23;8.90;;;6.03;;
7503;SDS011;3793;48.136;11.536;2023-05-07T02:33:50;6.33;;;5.70;;
7503;SDS011;3793;48.136;11.536;2023-05-07T02:36:17;6.53;;;5.40;;
7503;SDS011;3793;48.136;11.536;2023-05-07T02:38:43;6.83;;;5.97;;
7503;SDS011;3793;48.136;11.536;2023-05-07T02:41:10;5.90;;;5.30;;
7503;SDS011;3793;48.136;11.536;2023-05-07T02:43:37;7.67;;;6.23;;
7503;SDS011;3793;48.136;11.536;2023-05-07T02:46:04;10.10;;;6.97;;
7503;SDS011;3793;48.136;11.536;2023-05-07T02:48:34;6.97;;;6.10;;
7503;SDS011;3793;48.136;11.536;2023-05-07T02:51:01;8.50;;;6.10;;
7503;SDS011;3793;48.136;11.536;2023-05-07T02:53:29;6.77;;;5.90;;
7503;SDS011;3793;48.136;11.536;2023-05-07T02:55:56;7.03;;;5.90;;
7503;SDS011;3793;48.136;11.536;2023-05-07T02:58:23;9.60;;;5.97;;
7503;SDS011;3793;48.136;11.536;2023-05-07T03:00:50;7.40;;;5.43;;
7503;SDS011;3793;48.136;11.536;2023-05-07T03:03:20;6.03;;;5.43;;
7503;SDS011;3793;48.136;11.536;2023-05-07T03:05:49;6.07;;;5.43;;
7503;SDS011;3793;48.136;11.536;2023-05-07T03:08:16;6.40;;;5.50;;
7503;SDS011;3793;48.136;11.536;2023-05-07T03:10:43;8.03;;;5.80;;
7503;SDS011;3793;48.136;11.536;2023-05-07T03:13:10;6.77;;;5.73;;
7503;SDS011;3793;48.136;11.536;2023-05-07T03:15:36;7.30;;;5.57;;
7503;SDS011;3793;48.136;11.536;2023-05-07T03:18:03;7.07;;;5.40;;
7503;SDS011;3793;48.136;11.536;2023-05-07T03:20:30;5.83;;;5.00;;
7503;SDS011;3793;48.136;11.536;2023-05-07T03:22:58;5.83;;;5.17;;
7503;SDS011;3793;48.136;11.536;2023-05-07T03:25:25;6.53;;;5.10;;
7503;SDS011;3793;48.136;11.536;2023-05-07T03:27:55;5.33;;;4.80;;
7503;SDS011;3793;48.136;11.536;2023-05-07T03:30:22;7.00;;;5.50;;
7503;SDS011;3793;48.136;11.536;2023-05-07T03:32:52;6.03;;;5.27;;
7503;SDS011;3793;48.136;11.536;2023-05-07T03:35:19;8.83;;;4.93;;
7503;SDS011;3793;48.136;11.536;2023-05-07T03:37:46;7.50;;;5.03;;
7503;SDS011;3793;48.136;11.536;2023-05-07T03:40:15;7.53;;;5.30;;
7503;SDS011;3793;48.136;11.536;2023-05-07T03:42:45;6.43;;;5.37;;
7503;SDS011;3793;48.136;11.536;2023-05-07T03:45:11;8.47;;;5.33;;
7503;SDS011;3793;48.136;11.536;2023-05-07T03:47:38;5.63;;;5.00;;
7503;SDS011;3793;48.136;11.536;2023-05-07T03:50:05;6.20;;;5.20;;
7503;SDS011;3793;48.136;11.536;2023-05-07T03:52:32;8.07;;;4.97;;
7503;SDS011;3793;48.136;11.536;2023-05-07T03:54:59;6.20;;;4.93;;
7503;SDS011;3793;48.136;11.536;2023-05-07T03:57:27;7.50;;;5.03;;
7503;SDS011;3793;48.136;11.536;2023-05-07T03:59:54;7.50;;;5.10;;
7503;SDS011;3793;48.136;11.536;2023-05-07T04:02:21;5.53;;;4.97;;
7503;SDS011;3793;48.136;11.536;2023-05-07T04:04:48;6.63;;;4.27;;
7503;SDS011;3793;48.136;11.536;2023-05-07T04:07:15;7.63;;;4.90;;
7503;SDS011;3793;48.136;11.536;2023-05-07T04:09:42;7.00;;;5.03;;
7503;SDS011;3793;48.136;11.536;2023-05-07T04:12:08;7.03;;;4.70;;
7503;SDS011;3793;48.136;11.536;2023-05-07T04:14:36;5.83;;;5.30;;
7503;SDS011;3793;48.136;11.536;2023-05-07T04:17:03;6.67;;;4.63;;
7503;SDS011;3793;48.136;11.536;2023-05-07T04:19:32;6.37;;;4.77;;
7503;SDS011;3793;48.136;11.536;2023-05-07T04:21:59;6.57;;;4.73;;
7503;SDS011;3793;48.136;11.536;2023-05-07T04:24:26;4.90;;;4.40;;
7503;SDS011;3793;48.136;11.536;2023-05-07T04:26:53;5.20;;;4.67;;
7503;SDS011;3793;48.136;11.536;2023-05-07T04:29:20;6.93;;;5.60;;
7503;SDS011;3793;48.136;11.536;2023-05-07T04:31:48;6.80;;;5.13;;
7503;SDS011;3793;48.136;11.536;2023-05-07T04:34:15;6.37;;;4.97;;
7503;SDS011;3793;48.136;11.536;2023-05-07T04:36:42;6.07;;;4.40;;
7503;SDS011;3793;48.136;11.536;2023-05-07T04:39:09;7.07;;;4.87;;
7503;SDS011;3793;48.136;11.536;2023-05-07T04:41:36;5.20;;;4.50;;
7503;SDS011;3793;48.136;11.536;2023-05-07T04:44:02;7.43;;;4.80;;
7503;SDS011;3793;48.136;11.536;2023-05-07T04:46:31;7.37;;;4.80;;
7503;SDS011;3793;48.136;11.536;2023-05-07T04:48:59;5.80;;;4.90;;
7503;SDS011;3793;48.136;11.536;2023-05-07T04:51:26;5.23;;;4.70;;
7503;SDS011;3793;48.136;11.536;2023-05-07T04:53:53;5.70;;;4.20;;
7503;SDS011;3793;48.136;11.536;2023-05-07T04:56:19;7.33;;;4.60;;
7503;SDS011;3793;48.136;11.536;2023-05-07T04:58:46;5.20;;;3.77;;
7503;SDS011;3793;48.136;11.536;2023-05-07T05:01:13;9.20;;;5.40;;
7503;SDS011;3793;48.136;11.536;2023-05-07T05:03:40;6.20;;;4.83;;
7503;SDS011;3793;48.136;11.536;2023-05-07T05:06:10;6.00;;;4.90;;
7503;SDS011;3793;48.136;11.536;2023-05-07T05:08:37;5.60;;;4.67;;
7503;SDS011;3793;48.136;11.536;2023-05-07T05:11:04;6.80;;;4.43;;
7503;SDS011;3793;48.136;11.536;2023-05-07T05:13:31;6.47;;;4.37;;
7503;SDS011;3793;48.136;11.536;2023-05-07T05:15:57;6.83;;;4.77;;
7503;SDS011;3793;48.136;11.536;2023-05-07T05:18:25;6.83;;;4.90;;
7503;SDS011;3793;48.136;11.536;2023-05-07T05:20:51;5.83;;;4.47;;
7503;SDS011;3793;48.136;11.536;2023-05-07T05:23:20;4.97;;;4.43;;
7503;SDS011;3793;48.136;11.536;2023-05-07T05:25:46;6.20;;;4.30;;
7503;SDS011;3793;48.136;11.536;2023-05-07T05:28:13;5.10;;;4.60;;
7503;SDS011;3793;48.136;11.536;2023-05-07T05:30:40;5.93;;;4.27;;
7503;SDS011;3793;48.136;11.536;2023-05-07T05:33:07;5.47;;;4.20;;
7503;SDS011;3793;48.136;11.536;2023-05-07T05:35:34;4.67;;;4.20;;
7503;SDS011;3793;48.136;11.536;2023-05-07T05:38:01;5.37;;;3.80;;
7503;SDS011;3793;48.136;11.536;2023-05-07T05:40:30;5.53;;;4.03;;
7503;SDS011;3793;48.136;11.536;2023-05-07T05:42:57;4.60;;;3.90;;
7503;SDS011;3793;48.136;11.536;2023-05-07T05:45:23;3.70;;;3.40;;
7503;SDS011;3793;48.136;11.536;2023-05-07T05:47:50;7.20;;;4.00;;
7503;SDS011;3793;48.136;11.536;2023-05-07T05:50:17;6.03;;;4.00;;
7503;SDS011;3793;48.136;11.536;2023-05-07T05:52:57;4.50;;;3.87;;
7503;SDS011;3793;48.136;11.536;2023-05-07T05:55:24;4.50;;;3.87;;
7503;SDS011;3793;48.136;11.536;2023-05-07T05:57:51;5.37;;;3.40;;
7503;SDS011;3793;48.136;11.536;2023-05-07T06:00:18;5.73;;;4.30;;
7503;SDS011;3793;48.136;11.536;2023-05-07T06:02:47;5.03;;;3.67;;
7503;SDS011;3793;48.136;11.536;2023-05-07T06:05:14;4.13;;;3.73;;
7503;SDS011;3793;48.136;11.536;2023-05-07T06:07:41;4.67;;;3.73;;
7503;SDS011;3793;48.136;11.536;2023-05-07T06:10:09;5.80;;;3.30;;
7503;SDS011;3793;48.136;11.536;2023-05-07T06:12:36;5.13;;;3.80;;
7503;SDS011;3793;48.136;11.536;2023-05-07T06:15:03;3.50;;;3.20;;
7503;SDS011;3793;48.136;11.536;2023-05-07T06:17:31;3.90;;;3.60;;
7503;SDS011;3793;48.136;11.536;2023-05-07T06:19:58;6.53;;;4.03;;
7503;SDS011;3793;48.136;11.536;2023-05-07T06:22:25;5.03;;;4.10;;
7503;SDS011;3793;48.136;11.536;2023-05-07T06:24:51;4.33;;;3.33;;
7503;SDS011;3793;48.136;11.536;2023-05-07T06:27:20;5.40;;;4.03;;
7503;SDS011;3793;48.136;11.536;2023-05-07T06:29:47;5.07;;;3.87;;
7503;SDS011;3793;48.136;11.536;2023-05-07T06:32:14;8.43;;;3.87;;
7503;SDS011;3793;48.136;11.536;2023-05-07T06:34:42;4.33;;;3.60;;
7503;SDS011;3793;48.136;11.536;2023-05-07T06:37:09;4.28;;;3.70;;
7503;SDS011;3793;48.136;11.536;2023-05-07T06:39:43;5.53;;;3.10;;
7503;SDS011;3793;48.136;11.536;2023-05-07T06:42:12;6.53;;;3.40;;
7503;SDS011;3793;48.136;11.536;2023-05-07T06:44:40;3.80;;;2.83;;
7503;SDS011;3793;48.136;11.536;2023-05-07T06:47:08;3.30;;;2.90;;
7503;SDS011;3793;48.136;11.536;2023-05-07T06:49:45;3.00;;;2.70;;
7503;SDS011;3793;48.136;11.536;2023-05-07T06:52:14;3.28;;;2.88;;
7503;SDS011;3793;48.136;11.536;2023-05-07T06:54:41;3.25;;;2.63;;
7503;SDS011;3793;48.136;11.536;2023-05-07T06:57:07;3.50;;;2.95;;
7503;SDS011;3793;48.136;11.536;2023-05-07T06:59:34;2.78;;;2.42;;
7503;SDS011;3793;48.136;11.536;2023-05-07T07:02:03;3.22;;;2.53;;
7503;SDS011;3793;48.136;11.536;2023-05-07T07:04:30;3.88;;;3.05;;
7503;SDS011;3793;48.136;11.536;2023-05-07T07:06:57;3.60;;;2.90;;
7503;SDS011;3793;48.136;11.536;2023-05-07T07:09:24;3.55;;;2.55;;
7503;SDS011;3793;48.136;11.536;2023-05-07T07:11:51;4.85;;;2.90;;
7503;SDS011;3793;48.136;11.536;2023-05-07T07:14:18;3.70;;;2.55;;
7503;SDS011;3793;48.136;11.536;2023-05-07T07:16:45;3.10;;;2.72;;
7503;SDS011;3793;48.136;11.536;2023-05-07T07:19:14;3.28;;;2.90;;
7503;SDS011;3793;48.136;11.536;2023-05-07T07:21:41;3.28;;;2.78;;
7503;SDS011;3793;48.136;11.536;2023-05-07T07:24:08;3.25;;;2.28;;
7503;SDS011;3793;48.136;11.536;2023-05-07T07:26:34;5.20;;;2.90;;
7503;SDS011;3793;48.136;11.536;2023-05-07T07:29:01;4.22;;;2.85;;
7503;SDS011;3793;48.136;11.536;2023-05-07T07:31:29;4.28;;;2.58;;
7503;SDS011;3793;48.136;11.536;2023-05-07T07:34:06;3.38;;;2.72;;
7503;SDS011;3793;48.136;11.536;2023-05-07T07:36:34;4.63;;;2.42;;
7503;SDS011;3793;48.136;11.536;2023-05-07T07:39:01;3.25;;;2.63;;
7503;SDS011;3793;48.136;11.536;2023-05-07T07:41:28;3.83;;;2.50;;
7503;SDS011;3793;48.136;11.536;2023-05-07T07:43:55;3.95;;;2.70;;
7503;SDS011;3793;48.136;11.536;2023-05-07T07:46:23;3.90;;;2.45;;
7503;SDS011;3793;48.136;11.536;2023-05-07T07:48:56;3.03;;;2.70;;
7503;SDS011;3793;48.136;11.536;2023-05-07T07:51:24;3.45;;;2.75;;
7503;SDS011;3793;48.136;11.536;2023-05-07T07:53:53;4.70;;;2.42;;
7503;SDS011;3793;48.136;11.536;2023-05-07T07:56:20;3.55;;;2.40;;
7503;SDS011;3793;48.136;11.536;2023-05-07T07:58:47;2.25;;;2.05;;
7503;SDS011;3793;48.136;11.536;2023-05-07T08:01:14;3.78;;;2.65;;
7503;SDS011;3793;48.136;11.536;2023-05-07T08:03:41;5.07;;;2.90;;
7503;SDS011;3793;48.136;11.536;2023-05-07T08:06:11;2.50;;;2.28;;
7503;SDS011;3793;48.136;11.536;2023-05-07T08:29:15;3.33;;;2.50;;
7503;SDS011;3793;48.136;11.536;2023-05-07T08:33:10;3.42;;;2.90;;
7503;SDS011;3793;48.136;11.536;2023-05-07T08:35:37;2.97;;;2.53;;
7503;SDS011;3793;48.136;11.536;2023-05-07T08:48:38;4.25;;;2.30;;
7503;SDS011;3793;48.136;11.536;2023-05-07T08:51:07;3.47;;;2.28;;
7503;SDS011;3793;48.136;11.536;2023-05-07T08:58:15;2.35;;;2.00;;
7503;SDS011;3793;48.136;11.536;2023-05-07T09:06:05;8.20;;;2.72;;
7503;SDS011;3793;48.136;11.536;2023-05-07T09:08:14;3.38;;;2.20;;
7503;SDS011;3793;48.136;11.536;2023-05-07T09:10:52;3.90;;;2.50;;
7503;SDS011;3793;48.136;11.536;2023-05-07T09:13:28;3.13;;;2.60;;
7503;SDS011;3793;48.136;11.536;2023-05-07T09:16:27;4.28;;;1.98;;
7503;SDS011;3793;48.136;11.536;2023-05-07T09:25:42;3.00;;;2.08;;
7503;SDS011;3793;48.136;11.536;2023-05-07T09:35:46;2.60;;;2.30;;
7503;SDS011;3793;48.136;11.536;2023-05-07T09:38:14;3.10;;;2.13;;
7503;SDS011;3793;48.136;11.536;2023-05-07T09:40:42;2.33;;;2.10;;
7503;SDS011;3793;48.136;11.536;2023-05-07T09:43:09;3.20;;;2.17;;
7503;SDS011;3793;48.136;11.536;2023-05-07T09:45:37;2.30;;;2.10;;
7503;SDS011;3793;48.136;11.536;2023-05-07T09:48:05;2.97;;;2.35;;
7503;SDS011;3793;48.136;11.536;2023-05-07T09:54:05;5.28;;;2.60;;
7503;SDS011;3793;48.136;11.536;2023-05-07T10:00:11;2.55;;;1.83;;
7503;SDS011;3793;48.136;11.536;2023-05-07T10:02:40;3.50;;;1.73;;
7503;SDS011;3793;48.136;11.536;2023-05-07T10:05:13;3.72;;;2.58;;
7503;SDS011;3793;48.136;11.536;2023-05-07T10:07:40;2.90;;;2.42;;
7503;SDS011;3793;48.136;11.536;2023-05-07T10:10:08;5.10;;;2.83;;
7503;SDS011;3793;48.136;11.536;2023-05-07T10:12:42;3.78;;;2.67;;
7503;SDS011;3793;48.136;11.536;2023-05-07T10:15:11;2.45;;;2.25;;
7503;SDS011;3793;48.136;11.536;2023-05-07T10:21:48;3.47;;;2.50;;
7503;SDS011;3793;48.136;11.536;2023-05-07T10:28:10;3.38;;;2.25;;
7503;SDS011;3793;48.136;11.536;2023-05-07T10:30:49;4.50;;;2.42;;
7503;SDS011;3793;48.136;11.536;2023-05-07T10:33:45;3.47;;;2.33;;
7503;SDS011;3793;48.136;11.536;2023-05-07T10:36:33;3.58;;;2.25;;
7503;SDS011;3793;48.136;11.536;2023-05-07T10:39:05;2.10;;;1.90;;
7503;SDS011;3793;48.136;11.536;2023-05-07T10:41:39;3.05;;;1.70;;
7503;SDS011;3793;48.136;11.536;2023-05-07T10:44:10;5.13;;;2.45;;
7503;SDS011;3793;48.136;11.536;2023-05-07T10:46:37;3.88;;;2.20;;
7503;SDS011;3793;48.136;11.536;2023-05-07T10:49:11;4.13;;;2.15;;
7503;SDS011;3793;48.136;11.536;2023-05-07T10:51:37;4.80;;;2.30;;
7503;SDS011;3793;48.136;11.536;2023-05-07T10:54:21;3.58;;;1.90;;
7503;SDS011;3793;48.136;11.536;2023-05-07T10:56:49;2.85;;;1.98;;
7503;SDS011;3793;48.136;11.536;2023-05-07T10:59:36;2.50;;;2.13;;
7503;SDS011;3793;48.136;11.536;2023-05-07T11:02:09;3.55;;;2.30;;
7503;SDS011;3793;48.136;11.536;2023-05-07T11:04:39;3.03;;;2.03;;
7503;SDS011;3793;48.136;11.536;2023-05-07T11:09:58;4.38;;;2.40;;
7503;SDS011;3793;48.136;11.536;2023-05-07T11:15:35;3.90;;;2.38;;
7503;SDS011;3793;48.136;11.536;2023-05-07T11:18:07;2.65;;;2.13;;
7503;SDS011;3793;48.136;11.536;2023-05-07T11:20:53;3.45;;;2.25;;
7503;SDS011;3793;48.136;11.536;2023-05-07T11:26:42;4.82;;;2.58;;
7503;SDS011;3793;48.136;11.536;2023-05-07T11:29:11;2.80;;;2.30;;
7503;SDS011;3793;48.136;11.536;2023-05-07T11:31:40;2.97;;;2.20;;
7503;SDS011;3793;48.136;11.536;2023-05-07T11:34:12;3.92;;;2.58;;
7503;SDS011;3793;48.136;11.536;2023-05-07T11:36:41;5.63;;;2.60;;
7503;SDS011;3793;48.136;11.536;2023-05-07T11:41:55;2.88;;;2.45;;
7503;SDS011;3793;48.136;11.536;2023-05-07T11:44:22;3.90;;;2.65;;
7503;SDS011;3793;48.136;11.536;2023-05-07T11:46:50;4.30;;;2.65;;
7503;SDS011;3793;48.136;11.536;2023-05-07T11:55:36;4.32;;;2.50;;
7503;SDS011;3793;48.136;11.536;2023-05-07T11:58:03;2.28;;;2.08;;
7503;SDS011;3793;48.136;11.536;2023-05-07T12:00:30;4.93;;;2.20;;
7503;SDS011;3793;48.136;11.536;2023-05-07T12:03:03;3.20;;;2.20;;
7503;SDS011;3793;48.136;11.536;2023-05-07T12:05:31;2.72;;;2.05;;
7503;SDS011;3793;48.136;11.536;2023-05-07T12:07:58;2.28;;;1.88;;
7503;SDS011;3793;48.136;11.536;2023-05-07T12:10:25;2.35;;;2.05;;
7503;SDS011;3793;48.136;11.536;2023-05-07T12:12:53;2.85;;;2.35;;
7503;SDS011;3793;48.136;11.536;2023-05-07T12:15:23;3.10;;;2.30;;
7503;SDS011;3793;48.136;11.536;2023-05-07T12:17:50;3.60;;;2.33;;
7503;SDS011;3793;48.136;11.536;2023-05-07T12:20:23;3.90;;;2.40;;
7503;SDS011;3793;48.136;11.536;2023-05-07T12:23:03;6.45;;;2.35;;
7503;SDS011;3793;48.136;11.536;2023-05-07T12:25:33;2.30;;;2.08;;
7503;SDS011;3793;48.136;11.536;2023-05-07T12:28:12;6.47;;;2.67;;
7503;SDS011;3793;48.136;11.536;2023-05-07T12:30:40;2.08;;;1.85;;
7503;SDS011;3793;48.136;11.536;2023-05-07T12:33:07;2.05;;;1.80;;
7503;SDS011;3793;48.136;11.536;2023-05-07T12:35:38;2.45;;;1.80;;
7503;SDS011;3793;48.136;11.536;2023-05-07T12:38:07;2.30;;;1.95;;
7503;SDS011;3793;48.136;11.536;2023-05-07T12:40:35;3.92;;;1.77;;
7503;SDS011;3793;48.136;11.536;2023-05-07T12:43:03;2.20;;;1.95;;
7503;SDS011;3793;48.136;11.536;2023-05-07T12:45:30;2.65;;;2.25;;
7503;SDS011;3793;48.136;11.536;2023-05-07T12:48:00;2.72;;;1.83;;
7503;SDS011;3793;48.136;11.536;2023-05-07T12:50:30;3.60;;;1.80;;
7503;SDS011;3793;48.136;11.536;2023-05-07T12:53:00;3.22;;;2.30;;
7503;SDS011;3793;48.136;11.536;2023-05-07T12:55:31;2.85;;;1.83;;
7503;SDS011;3793;48.136;11.536;2023-05-07T12:58:42;3.47;;;2.20;;
7503;SDS011;3793;48.136;11.536;2023-05-07T13:01:37;2.80;;;2.05;;
7503;SDS011;3793;48.136;11.536;2023-05-07T13:04:07;3.30;;;2.08;;
7503;SDS011;3793;48.136;11.536;2023-05-07T13:06:34;2.33;;;2.00;;
7503;SDS011;3793;48.136;11.536;2023-05-07T13:14:56;1.80;;;1.63;;
7503;SDS011;3793;48.136;11.536;2023-05-07T13:17:24;3.85;;;1.98;;
7503;SDS011;3793;48.136;11.536;2023-05-07T13:19:51;3.42;;;1.88;;
7503;SDS011;3793;48.136;11.536;2023-05-07T13:22:18;3.25;;;2.10;;
7503;SDS011;3793;48.136;11.536;2023-05-07T13:24:46;5.10;;;2.78;;
7503;SDS011;3793;48.136;11.536;2023-05-07T13:27:14;2.80;;;2.00;;
7503;SDS011;3793;48.136;11.536;2023-05-07T13:29:44;6.22;;;2.28;;
7503;SDS011;3793;48.136;11.536;2023-05-07T13:32:11;3.97;;;2.10;;
7503;SDS011;3793;48.136;11.536;2023-05-07T13:34:39;4.53;;;1.90;;
7503;SDS011;3793;48.136;11.536;2023-05-07T13:37:07;2.25;;;1.70;;
7503;SDS011;3793;48.136;11.536;2023-05-07T13:39:34;3.50;;;1.65;;
7503;SDS011;3793;48.136;11.536;2023-05-07T13:42:09;2.38;;;1.60;;
7503;SDS011;3793;48.136;11.536;2023-05-07T13:44:44;2.53;;;1.75;;
7503;SDS011;3793;48.136;11.536;2023-05-07T13:47:26;1.60;;;1.50;;
7503;SDS011;3793;48.136;11.536;2023-05-07T13:50:38;1.80;;;1.55;;
7503;SDS011;3793;48.136;11.536;2023-05-07T13:53:05;1.98;;;1.50;;
7503;SDS011;3793;48.136;11.536;2023-05-07T13:55:33;2.05;;;1.70;;
7503;SDS011;3793;48.136;11.536;2023-05-07T13:58:11;3.17;;;1.60;;
7503;SDS011;3793;48.136;11.536;2023-05-07T14:00:38;3.70;;;1.55;;
7503;SDS011;3793;48.136;11.536;2023-05-07T14:03:07;3.40;;;1.80;;
7503;SDS011;3793;48.136;11.536;2023-05-07T14:05:34;1.85;;;1.65;;
7503;SDS011;3793;48.136;11.536;2023-05-07T14:08:06;3.15;;;1.67;;
7503;SDS011;3793;48.136;11.536;2023-05-07T14:10:47;2.00;;;1.58;;
7503;SDS011;3793;48.136;11.536;2023-05-07T14:13:43;5.22;;;2.13;;
7503;SDS011;3793;48.136;11.536;2023-05-07T14:19:49;1.83;;;1.60;;
7503;SDS011;3793;48.136;11.536;2023-05-07T14:23:04;5.15;;;2.70;;
7503;SDS011;3793;48.136;11.536;2023-05-07T14:27:17;3.60;;;2.78;;
7503;SDS011;3793;48.136;11.536;2023-05-07T14:31:27;24.52;;;17.10;;
7503;SDS011;3793;48.136;11.536;2023-05-07T14:33:55;17.20;;;10.77;;
7503;SDS011;3793;48.136;11.536;2023-05-07T14:39:53;3.85;;;2.17;;
7503;SDS011;3793;48.136;11.536;2023-05-07T14:42:28;2.72;;;1.80;;
7503;SDS011;3793;48.136;11.536;2023-05-07T14:48:05;4.57;;;2.50;;
7503;SDS011;3793;48.136;11.536;2023-05-07T14:50:53;4.10;;;2.50;;
7503;SDS011;3793;48.136;11.536;2023-05-07T14:56:55;3.05;;;2.53;;
7503;SDS011;3793;48.136;11.536;2023-05-07T14:59:48;2.58;;;2.38;;
7503;SDS011;3793;48.136;11.536;2023-05-07T15:02:33;2.45;;;2.22;;
7503;SDS011;3793;48.136;11.536;2023-05-07T15:05:04;3.28;;;2.45;;
7503;SDS011;3793;48.136;11.536;2023-05-07T15:07:31;4.65;;;2.67;;
7503;SDS011;3793;48.136;11.536;2023-05-07T15:09:59;3.22;;;2.80;;
7503;SDS011;3793;48.136;11.536;2023-05-07T15:12:26;3.42;;;2.70;;
7503;SDS011;3793;48.136;11.536;2023-05-07T15:14:53;3.65;;;3.03;;
7503;SDS011;3793;48.136;11.536;2023-05-07T15:17:20;3.88;;;2.47;;
7503;SDS011;3793;48.136;11.536;2023-05-07T15:19:48;3.63;;;2.97;;
7503;SDS011;3793;48.136;11.536;2023-05-07T15:22:16;3.63;;;2.60;;
7503;SDS011;3793;48.136;11.536;2023-05-07T15:24:48;2.88;;;2.50;;
7503;SDS011;3793;48.136;11.536;2023-05-07T15:27:21;3.60;;;2.72;;
7503;SDS011;3793;48.136;11.536;2023-05-07T15:29:53;3.33;;;2.50;;
7503;SDS011;3793;48.136;11.536;2023-05-07T15:32:20;2.88;;;2.30;;
7503;SDS011;3793;48.136;11.536;2023-05-07T15:34:48;3.95;;;2.78;;
7503;SDS011;3793;48.136;11.536;2023-05-07T15:37:15;4.63;;;2.90;;
7503;SDS011;3793;48.136;11.536;2023-05-07T15:39:42;5.43;;;2.70;;
7503;SDS011;3793;48.136;11.536;2023-05-07T15:42:09;3.25;;;2.10;;
7503;SDS011;3793;48.136;11.536;2023-05-07T15:44:36;6.65;;;3.00;;
7503;SDS011;3793;48.136;11.536;2023-05-07T15:47:04;4.90;;;2.45;;
7503;SDS011;3793;48.136;11.536;2023-05-07T15:49:31;2.67;;;2.33;;
7503;SDS011;3793;48.136;11.536;2023-05-07T15:52:00;3.67;;;2.38;;
7503;SDS011;3793;48.136;11.536;2023-05-07T15:54:27;3.75;;;2.30;;
7503;SDS011;3793;48.136;11.536;2023-05-07T15:56:53;3.10;;;2.13;;
7503;SDS011;3793;48.136;11.536;2023-05-07T15:59:20;2.20;;;2.00;;
7503;SDS011;3793;48.136;11.536;2023-05-07T16:01:47;4.05;;;1.90;;
7503;SDS011;3793;48.136;11.536;2023-05-07T16:04:14;5.15;;;2.50;;
7503;SDS011;3793;48.136;11.536;2023-05-07T16:06:44;2.10;;;1.90;;
7503;SDS011;3793;48.136;11.536;2023-05-07T16:09:13;2.13;;;1.92;;
7503;SDS011;3793;48.136;11.536;2023-05-07T16:11:40;3.25;;;2.25;;
7503;SDS011;3793;48.136;11.536;2023-05-07T16:14:07;2.30;;;2.10;;
7503;SDS011;3793;48.136;11.536;2023-05-07T16:16:34;4.88;;;2.03;;
7503;SDS011;3793;48.136;11.536;2023-05-07T16:19:02;2.90;;;1.98;;
7503;SDS011;3793;48.136;11.536;2023-05-07T16:21:29;3.10;;;2.13;;
7503;SDS011;3793;48.136;11.536;2023-05-07T16:23:56;2.33;;;2.00;;
7503;SDS011;3793;48.136;11.536;2023-05-07T16:26:25;2.58;;;1.80;;
7503;SDS011;3793;48.136;11.536;2023-05-07T16:28:52;3.20;;;2.40;;
7503;SDS011;3793;48.136;11.536;2023-05-07T16:31:19;2.95;;;2.00;;
7503;SDS011;3793;48.136;11.536;2023-05-07T16:33:46;3.13;;;2.10;;
7503;SDS011;3793;48.136;11.536;2023-05-07T16:36:13;2.80;;;2.03;;
7503;SDS011;3793;48.136;11.536;2023-05-07T16:38:39;2.15;;;1.95;;
7503;SDS011;3793;48.136;11.536;2023-05-07T16:41:07;3.10;;;2.05;;
7503;SDS011;3793;48.136;11.536;2023-05-07T16:43:35;3.25;;;2.20;;
7503;SDS011;3793;48.136;11.536;2023-05-07T16:46:02;2.33;;;1.90;;
7503;SDS011;3793;48.136;11.536;2023-05-07T16:48:29;4.65;;;2.00;;
7503;SDS011;3793;48.136;11.536;2023-05-07T16:50:56;3.40;;;2.15;;
7503;SDS011;3793;48.136;11.536;2023-05-07T16:53:24;2.60;;;2.10;;
7503;SDS011;3793;48.136;11.536;2023-05-07T16:55:54;3.28;;;2.00;;
7503;SDS011;3793;48.136;11.536;2023-05-07T16:58:21;3.13;;;2.10;;
7503;SDS011;3793;48.136;11.536;2023-05-07T17:00:50;4.70;;;2.20;;
7503;SDS011;3793;48.136;11.536;2023-05-07T17:03:17;2.58;;;2.00;;
7503;SDS011;3793;48.136;11.536;2023-05-07T17:05:46;2.65;;;1.73;;